Charlottesville, VA (22901)

11:20 AM EDT on July 05, 2015 (GMT -0400)
Off Hydraulic Road | | Change Station
CLOSE
Current Station
Personal Weather Station
Location: Charlottesville, VA
Elevation: 558 ft
Nearby Weather Stations

Elev 558 ft 38.08 °N, 78.50 °W | Updated 5 seconds ago

Overcast
Overcast
71.3 °F
Feels Like 71.3 °F
N
0.0
Wind Variable Wind from East
Gusts 0.0 mph

Today
High -- | Low -- °F
--% Chance of Precip.
Yesterday
High -- | Low -- °F
Precip. -- in
5:56 AM 8:40 PM
Waning Gibbous, 84% visible
Pressure 30.15 in
Visibility 8.0 miles
Clouds Mostly Cloudy 500 ft
Overcast 1000 ft
Dew Point 70 °F
Humidity 95%
Rainfall 0.00 in
Snow Depth Not available.
UV 3 out of 12
Pollen .90 out of 12
Air Quality Not available.
Flu Activity Not available.
METAR KCHO 051453Z 08004KT 8SM BKN005 OVC010 23/20 A3017 RMK AO2 CIG 004V007 SLP209 T02280200 51010 $

More Conditions Fewer Conditions

Pressure 30.15 in
Visibility 8.0 miles
Clouds Mostly Cloudy 500 ft
Overcast 1000 ft
Dew Point 70 °F
Humidity 95%
Rainfall 0.00 in
Snow Depth Not available.
UV 3 out of 12
Pollen .90 out of 12
Air Quality Not available.
Flu Activity Not available.
METAR KCHO 051453Z 08004KT 8SM BKN005 OVC010 23/20 A3017 RMK AO2 CIG 004V007 SLP209 T02280200 51010 $

More Conditions Fewer Conditions

10-Day Weather Forecast

×

Almanac

Astronomy

Jul. 05, 2015 Rise Set
Actual Time
Civil Twilight
Nautical Twilight
Astronomical Twilight
Moon
Length of Visible Light
Length of Day
Tomorrow will be .
, % of the Moon is Illuminated

Today's Extremes

State Highs State Lows

Community

WunderPhotos

Upload Photos

1,835,288 photos uploaded!

WunderBlogs® & News

Nearby

Air Quality

  Air Quality AQ Index Pollutant
Not available.

Snow Depth

Station Depth Elevation

Earthquake Activity

City Distance Mag. Time & Date
Minimum magnitude displayed is 2.5.

Coastal Water Temperatures

Place Temperature

Stations

Nearby Weather Stations

Station Location Temp. Windchill Dew Point Humidity Wind Precip. Elev Updated Type